默认 日期 大小 文件数 浏览量 最新下载 xml
101-磁力链接相关资源由用户搜索指令自动获取,结果来源于网络,本站不存储任何资料,亦不承担任何责任,请于24小时内删除,搜索到35537个磁力,显示前4000条数据,用时6ms。
    {"VIDEO_TS": {"VIDEO_TS.BUP": 61440, "VIDEO_TS.IFO": 61440, "VIDEO_TS.VOB": 157696, "VTS_01_0.BUP": 204800, "VTS_01_0.IFO": 204800, "VTS_01_0.VOB": 80099328, "VTS_01_1.VOB": 1073739776, "VTS_01_2.VOB": 1073739776, "VTS_01_3.VOB": 1073739776, "VTS_01_4.VOB ...
创建时间: 2018-12-20 22:04:16 大小:7.06 GB 文件数量:131 热度:10 最近下载:2025-08-09 13:40:01
    {"autorun.txt": 852, "Torrent downloaded from H33t.to.txt": 76, "DriverPack Solution 19.7.101-18074 Full Final.exe": 12077260}
创建时间: 2018-12-20 22:23:16 大小:11.52 MB 文件数量:3 热度:9 最近下载:2025-01-11 11:02:02
    {"101 Things to Do with Ramen Noodles.epub": 251081}
创建时间: 2018-12-20 22:32:54 大小:245.2 KB 文件数量:1 热度:10 最近下载:2024-08-22 03:19:02
    {"CD 1": {"19 - Wings - Mull Of Kintyre.mp3": 6734281, "17 - Jamelia - Last Christmas.mp3": 3873846, "22 - The Snowmen - Hokey Cokey.mp3": 2229438, "08 - Kylie Minogue - Santa Baby.mp3": 4639758, "15 - Mud - Lonely This Christmas.mp3": 4854944, "02 - Cliff ...
创建时间: 2018-12-20 22:51:18 大小:371.37 MB 文件数量:103 热度:6 最近下载:2023-03-22 17:40:04
    {"www.newpct1.com.url": 877507, "Importante leer !!!!!.txt": 301, "VMuta720p1x01 [www.newpct1.com].mkv": 1888360843}
创建时间: 2018-12-20 22:59:13 大小:1.76 GB 文件数量:3 热度:9 最近下载:2024-09-01 01:27:02
    {"Me Read Me.txt": 178, "22 Textutils.txt": 3653, "File Permissions.txt": 1536, "2 Boot The System.txt": 1895, "00Hardware Settings.txt": 1409, "1 Hardware Settings.txt": 4301, "24 File Permissions.txt": 1536, "14 Process Priorities.txt": 863, "20 Manage ...
创建时间: 2018-12-20 23:08:32 大小:46.57 KB 文件数量:28 热度:10 最近下载:2025-01-10 06:19:03
    {"Install.Notes.inf": 328, "WWW.YIFY-TORRENTS.COM.jpg": 139424, "Torrent downloaded from Divxhunt.me.txt": 36, "DriverPack Solution 17.7.101-18074 Full Final - DailyApp.exe": 17791816, "DriverPack Solution 17.7.101-18074 Full Final - DailyApp.nfo": 516}
创建时间: 2018-12-20 23:11:16 大小:17.1 MB 文件数量:5 热度:9 最近下载:2023-03-22 17:40:05
    {"ElNegocio1x01.rar": 592190077}
创建时间: 2018-12-20 23:13:13 大小:564.76 MB 文件数量:1 热度:6 最近下载:2023-03-22 17:40:02
    {"TorrentRapid.url": 117, "TorrentLocura.url": 128, "Cormoran Strike El Canto Del Cuco [HDTV 720p][Cap.101][AC3 5.1 Castellano][www.descargas2020.com].mkv": 2195471828}
创建时间: 2018-12-20 23:13:18 大小:2.04 GB 文件数量:3 热度:7 最近下载:2023-03-22 17:40:06
    {"Keys.txt": 704, "Torrent downloaded from H33t.to.txt": 40, "DriverPack Solution 17.7.101-18083 Latest - DailyApp.exe": 19704828, "DriverPack Solution 17.7.101-18083 Latest - DailyApp.nfo": 548}
创建时间: 2018-12-20 23:13:58 大小:18.79 MB 文件数量:4 热度:8 最近下载:2023-03-22 17:40:02
    {"www.DIVXATOPE.com.url": 877518, "Importante leer !!!!!.txt": 299, "BSails101720p [www.newpct.com].mkv": 2587527498}
创建时间: 2018-12-20 23:17:07 大小:2.41 GB 文件数量:3 热度:6 最近下载:2023-03-22 17:40:02
    ... Premium.txt": 427, "CD1 - 101 70s ROCK ANTHEMS": {"06.Budgie - ... 8301761, "Bachman Turner Overdrive - 101 - 70s Rock Anthems - CD1. ... mp3": 8777179, "Lynyrd Skynyrd - 101 - 70s Rock Anthems - CD5. ... Folder Back.jpg": 98935, "101 70s ROCK ANTHEMS - Folder Front ...
创建时间: 2018-12-20 23:30:36 大小:909.63 MB 文件数量:109 热度:7 最近下载:2023-03-22 17:40:02
    ... .url": 244}, "RKI-101.avi": 1041337553, "RKI-101.jpg": 116630, "_____padding_file_0_如 ...
创建时间: 2018-12-20 23:34:42 大小:995.36 MB 文件数量:19 热度:18 最近下载:2025-09-17 05:57:07
    {"Clique720p1x01.rar": 1706092932}
创建时间: 2018-12-20 23:42:52 大小:1.59 GB 文件数量:1 热度:8 最近下载:2023-03-22 17:40:04
    {"Torrent downloaded from Kickass.to.txt": 64, "DriverPack Solution 17.7.101-18083 Latest - DailyApp.exe": 3987624}
创建时间: 2018-12-20 23:46:19 大小:3.8 MB 文件数量:2 热度:9 最近下载:2023-03-22 17:40:06
    {"Readme.url": 1252, "ABBYY FineReader 12.0.101.388 Corporated.exe": 19120096, "ABBYY FineReader 12.0.101.388 Corporated.nfo": 1048, "Torrent downloaded from extremlymtorrents.me.txt": 72}
创建时间: 2018-12-20 23:47:42 大小:18.24 MB 文件数量:4 热度:7 最近下载:2024-12-07 23:37:02
    {"WWW.YIFY-TORRENTS.COM.jpg": 130677, "101.Dalmatians.II.Patchs.London.Adventure.2003.720p.BRrip.x264.YIFY.mp4": 576105771, "101.Dalmatians.II.Patchs.London.Adventure.2003.720p.BRrip.x264.YIFY.srt": 158990}
创建时间: 2018-12-20 23:51:58 大小:549.69 MB 文件数量:3 热度:8 最近下载:2023-03-22 17:40:04
    {"tmem-101.mp4": 977099930, "SIS001影视 ...
创建时间: 2018-12-21 00:00:51 大小:932.03 MB 文件数量:7 热度:31 最近下载:2025-07-23 01:29:03
    {"drweb-700-win.exe": 111029584, "10.11.2011 drweb32.key": 1537, "12.10.2011 drweb32.key": 1560, "12.11.2011 drweb32.key": 1558, "24.10.2011 drweb32.key": 1546, "25.10.2011 drweb32.key": 1553, "drweb-700-win-space.exe": 148219144}
创建时间: 2018-12-21 00:06:21 大小:247.25 MB 文件数量:7 热度:9 最近下载:2024-12-02 15:09:02
    ... com Monica Black Tie HR 101 pics 580 MB_002.jpg": ... com Monica Black Tie HR 101 pics 580 MB_003.jpg": ... com Monica Black Tie HR 101 pics 580 MB_004.jpg": ... com Monica Black Tie HR 101 pics 580 MB_005.jpg": ... com Monica Black Tie HR 101 pics 580 MB_006.jpg": ...
创建时间: 2018-12-21 00:10:59 大小:581.96 MB 文件数量:107 热度:12 最近下载:2025-10-06 02:55:04